createdAt,value
2022-10-09T00:01:31.395Z,77.86
2022-10-09T00:04:52.008Z,77.68
2022-10-09T00:08:30.005Z,77.69
2022-10-09T00:12:08.046Z,78.11
2022-10-09T00:15:45.923Z,78.29
2022-10-09T00:19:22.401Z,78.47
2022-10-09T00:23:18.953Z,78.40
2022-10-09T00:26:39.377Z,78.24
2022-10-09T00:30:17.170Z,78.10
2022-10-09T00:34:13.454Z,78.09
2022-10-09T00:37:52.650Z,78.30
2022-10-09T00:41:17.316Z,78.61
2022-10-09T00:45:18.909Z,79.09
2022-10-09T00:48:39.463Z,79.03
2022-10-09T00:52:17.764Z,79.07
2022-10-09T00:56:14.003Z,78.74
2022-10-09T00:59:36.616Z,78.46
2022-10-09T01:03:12.487Z,78.21
2022-10-09T01:06:53.041Z,77.98
2022-10-09T01:10:35.734Z,77.89
2022-10-09T01:14:18.691Z,78.20
2022-10-09T01:18:05.829Z,78.34
2022-10-09T01:22:04.720Z,78.57
2022-10-09T01:25:57.330Z,78.84
2022-10-09T01:29:21.574Z,78.47
2022-10-09T01:32:58.386Z,78.69
2022-10-09T01:36:55.933Z,78.59
2022-10-09T01:40:17.744Z,78.90
2022-10-09T01:44:28.610Z,78.85
2022-10-09T01:47:49.517Z,79.20
2022-10-09T01:51:35.026Z,79.75
2022-10-09T01:55:42.084Z,80.12
2022-10-09T01:59:14.834Z,80.40
2022-10-09T02:02:45.897Z,80.28
2022-10-09T02:06:19.842Z,80.10
2022-10-09T02:09:56.873Z,79.85
2022-10-09T02:13:35.459Z,80.22
2022-10-09T02:17:18.895Z,80.08
2022-10-09T02:20:55.641Z,80.15
2022-10-09T02:24:46.198Z,80.61
2022-10-09T02:28:25.876Z,80.99
2022-10-09T02:31:47.404Z,81.27
2022-10-09T02:35:24.318Z,81.16
2022-10-09T02:39:03.515Z,81.02
2022-10-09T02:42:39.629Z,80.88
2022-10-09T02:46:17.964Z,80.88
2022-10-09T02:50:14.001Z,80.67
2022-10-09T02:53:55.017Z,80.75
2022-10-09T02:57:15.877Z,81.08
2022-10-09T03:00:53.961Z,81.35
2022-10-09T03:04:31.205Z,81.73
2022-10-09T03:08:08.784Z,81.89
2022-10-09T03:11:46.526Z,81.89
2022-10-09T03:15:24.186Z,81.80
2022-10-09T03:19:01.883Z,81.69
2022-10-09T03:22:39.553Z,81.63
2022-10-09T03:26:36.040Z,81.50
2022-10-09T03:29:58.591Z,81.48
2022-10-09T03:33:53.284Z,81.93
2022-10-09T03:37:14.295Z,82.21
2022-10-09T03:40:52.396Z,82.61
2022-10-09T03:44:29.623Z,82.74
2022-10-09T03:48:09.707Z,82.74
2022-10-09T03:52:04.157Z,82.36
2022-10-09T03:55:43.889Z,82.07
2022-10-09T03:59:07.468Z,81.91
2022-10-09T04:03:02.359Z,81.94
2022-10-09T04:06:42.229Z,81.74
2022-10-09T04:10:21.761Z,82.01
2022-10-09T04:14:02.561Z,82.29
2022-10-09T04:17:42.217Z,82.64
2022-10-09T04:21:02.827Z,82.73
2022-10-09T04:24:40.464Z,82.80
2022-10-09T04:28:37.574Z,82.56
2022-10-09T04:31:58.994Z,82.69
2022-10-09T04:35:36.426Z,82.66
2022-10-09T04:39:13.969Z,82.96
2022-10-09T04:43:10.542Z,83.49
2022-10-09T04:46:31.214Z,83.48
2022-10-09T04:50:09.309Z,83.37
2022-10-09T04:53:46.677Z,83.49
2022-10-09T04:57:24.193Z,83.68
2022-10-09T05:01:06.649Z,83.46
2022-10-09T05:04:39.633Z,84.09
2022-10-09T05:08:17.257Z,84.32
2022-10-09T05:12:13.787Z,84.49
2022-10-09T05:15:37.917Z,84.70
2022-10-09T05:19:32.064Z,84.83
2022-10-09T05:22:53.138Z,84.69
2022-10-09T05:26:30.662Z,84.72
2022-10-09T05:30:09.385Z,84.79
2022-10-09T05:33:46.748Z,85.08
2022-10-09T05:37:23.844Z,85.28
2022-10-09T05:41:04.972Z,85.60
2022-10-09T05:44:39.590Z,85.79
2022-10-09T05:48:16.704Z,85.77
2022-10-09T05:51:56.082Z,85.57
2022-10-09T05:55:32.186Z,85.37
2022-10-09T05:59:15.676Z,85.37
2022-10-09T06:02:47.717Z,85.70
2022-10-09T06:06:28.226Z,86.08
2022-10-09T06:10:03.671Z,86.40
2022-10-09T06:13:41.441Z,86.52
2022-10-09T06:17:18.263Z,86.40
2022-10-09T06:20:58.309Z,86.11
2022-10-09T06:24:33.697Z,86.01
2022-10-09T06:28:11.846Z,86.34
2022-10-09T06:32:07.822Z,86.49
2022-10-09T06:35:28.763Z,86.79
2022-10-09T06:39:10.672Z,87.04
2022-10-09T06:42:45.485Z,87.07
2022-10-09T06:46:24.729Z,86.90
2022-10-09T06:49:59.477Z,86.66
2022-10-09T06:53:58.513Z,86.44
2022-10-09T06:57:38.502Z,86.81
2022-10-09T07:01:03.711Z,87.03
2022-10-09T07:04:36.917Z,87.07
2022-10-09T07:08:33.357Z,86.93
2022-10-09T07:11:53.982Z,86.74
2022-10-09T07:15:50.707Z,86.60
2022-10-09T07:19:17.650Z,86.61
2022-10-09T07:22:50.102Z,86.82
2022-10-09T07:26:49.121Z,86.81
2022-10-09T07:30:10.138Z,86.97
2022-10-09T07:33:48.654Z,86.60
2022-10-09T07:37:25.119Z,86.34
2022-10-09T07:41:09.690Z,86.41
2022-10-09T07:44:40.387Z,86.49
2022-10-09T07:48:18.160Z,86.06
2022-10-09T07:52:15.109Z,86.09
2022-10-09T07:55:55.066Z,85.85
2022-10-09T07:59:17.134Z,85.46
2022-10-09T08:02:53.772Z,85.22
2022-10-09T08:06:49.854Z,84.89
2022-10-09T08:10:32.642Z,84.89
2022-10-09T08:13:53.821Z,84.94
2022-10-09T08:17:31.028Z,85.21
2022-10-09T08:21:11.776Z,84.34
2022-10-09T08:25:05.789Z,84.06
2022-10-09T08:29:00.542Z,83.89
2022-10-09T08:32:21.008Z,83.75
2022-10-09T08:36:07.796Z,83.59
2022-10-09T08:39:36.361Z,83.58
2022-10-09T08:43:19.114Z,83.07
2022-10-09T08:47:07.258Z,82.52
2022-10-09T08:50:34.982Z,82.52
2022-10-09T08:54:20.129Z,81.80
2022-10-09T08:57:47.131Z,81.79
2022-10-09T09:01:32.293Z,81.63
2022-10-09T09:05:27.247Z,81.86
2022-10-09T09:09:01.298Z,81.30
2022-10-09T09:12:34.339Z,80.92
2022-10-09T09:16:07.123Z,81.05
2022-10-09T09:20:09.719Z,79.95
2022-10-09T09:23:50.886Z,78.73
2022-10-09T09:27:33.623Z,79.16
2022-10-09T09:30:58.703Z,79.24
2022-10-09T09:34:41.148Z,79.59
2022-10-09T09:38:28.650Z,77.84
2022-10-09T09:41:54.476Z,76.14
2022-10-09T09:45:28.751Z,76.14
2022-10-09T09:49:28.578Z,76.39
2022-10-09T09:52:49.394Z,77.37
2022-10-09T09:57:07.020Z,76.93
2022-10-09T10:00:23.364Z,75.33
2022-10-09T10:04:02.009Z,73.41
2022-10-09T10:07:39.008Z,73.20
2022-10-09T10:11:35.187Z,73.29
2022-10-09T10:14:55.901Z,72.98
2022-10-09T10:18:54.422Z,73.20
2022-10-09T10:22:25.903Z,72.46
2022-10-09T10:25:59.200Z,70.87
2022-10-09T10:30:04.731Z,70.15
2022-10-09T10:33:29.856Z,68.67
2022-10-09T10:37:15.510Z,68.51
2022-10-09T10:41:21.714Z,68.76
2022-10-09T10:45:04.176Z,66.87
2022-10-09T10:48:29.037Z,66.22
2022-10-09T10:52:27.457Z,65.12
2022-10-09T10:56:00.223Z,65.86
2022-10-09T11:00:07.812Z,65.91
2022-10-09T11:03:28.305Z,65.16
2022-10-09T11:07:25.455Z,64.30
2022-10-09T11:11:12.728Z,64.67
2022-10-09T11:14:48.178Z,63.39
2022-10-09T11:18:24.133Z,63.28
2022-10-09T11:22:30.942Z,62.68
2022-10-09T11:26:13.330Z,61.79
2022-10-09T11:30:01.308Z,62.81
2022-10-09T11:33:33.858Z,62.58
2022-10-09T11:37:07.145Z,61.38
2022-10-09T11:40:42.286Z,60.59
2022-10-09T11:44:46.297Z,58.42
2022-10-09T11:48:33.237Z,58.28
2022-10-09T11:52:43.126Z,57.51
2022-10-09T11:56:29.092Z,58.63
2022-10-09T11:59:49.917Z,57.54
2022-10-09T12:03:36.531Z,56.15
2022-10-09T12:07:09.441Z,56.96
2022-10-09T12:10:53.778Z,54.84
2022-10-09T12:14:27.654Z,52.29
2022-10-09T12:17:58.041Z,54.65
2022-10-09T12:21:43.199Z,55.58
2022-10-09T12:25:24.464Z,55.32
2022-10-09T12:28:55.113Z,54.51
2022-10-09T12:32:45.299Z,53.79
2022-10-09T12:36:23.965Z,54.45
2022-10-09T12:39:47.024Z,53.16
2022-10-09T12:43:46.364Z,54.17
2022-10-09T12:47:15.292Z,54.82
2022-10-09T12:50:45.889Z,55.98
2022-10-09T12:54:27.452Z,55.39
2022-10-09T12:58:05.258Z,55.59
2022-10-09T13:01:41.987Z,52.78
2022-10-09T13:05:16.987Z,52.11
2022-10-09T13:09:02.018Z,52.19
2022-10-09T13:12:32.924Z,49.87
2022-10-09T13:16:12.672Z,47.46
2022-10-09T13:19:53.336Z,42.73
2022-10-09T13:23:43.633Z,43.66
2022-10-09T13:27:05.305Z,41.67
2022-10-09T13:30:41.823Z,39.13
2022-10-09T13:34:23.848Z,36.50
2022-10-09T13:37:56.950Z,34.98
2022-10-09T13:41:55.450Z,35.80
2022-10-09T13:45:18.705Z,35.53
2022-10-09T13:48:53.664Z,34.98
2022-10-09T13:52:31.200Z,36.32
2022-10-09T13:56:09.747Z,36.61
2022-10-09T13:59:47.559Z,35.73
2022-10-09T14:03:24.548Z,35.57
2022-10-09T14:07:02.089Z,37.58
2022-10-09T14:10:44.032Z,37.64
2022-10-09T14:14:17.948Z,36.99
2022-10-09T14:18:14.359Z,37.37
2022-10-09T14:21:55.361Z,36.16
2022-10-09T14:25:16.499Z,34.30
2022-10-09T14:28:55.064Z,35.34
2022-10-09T14:32:31.553Z,35.99
2022-10-09T14:36:14.481Z,34.03
2022-10-09T14:39:48.841Z,35.94
2022-10-09T14:43:24.452Z,35.70
2022-10-09T14:47:02.230Z,36.48
2022-10-09T14:50:39.916Z,35.41
2022-10-09T14:54:17.561Z,34.91
2022-10-09T14:58:14.040Z,36.60
2022-10-09T15:01:38.488Z,36.51
2022-10-09T15:05:12.215Z,37.20
2022-10-09T15:09:03.121Z,38.35
2022-10-09T15:12:46.493Z,39.20
2022-10-09T15:16:14.473Z,39.53
2022-10-09T15:20:06.757Z,40.39
2022-10-09T15:23:47.222Z,41.03
2022-10-09T15:27:07.590Z,41.87
2022-10-09T15:30:53.917Z,42.61
2022-10-09T15:34:22.924Z,43.45
2022-10-09T15:38:22.544Z,43.83
2022-10-09T15:42:05.450Z,44.56
2022-10-09T15:45:26.055Z,45.63
2022-10-09T15:49:22.491Z,47.04
2022-10-09T15:52:42.995Z,47.54
2022-10-09T15:56:40.763Z,48.27
2022-10-09T16:00:04.349Z,48.88
2022-10-09T16:03:40.874Z,49.33
2022-10-09T16:07:17.952Z,50.01
2022-10-09T16:11:18.997Z,50.48
2022-10-09T16:14:49.876Z,51.02
2022-10-09T16:18:44.313Z,51.60
2022-10-09T16:22:05.934Z,52.09
2022-10-09T16:26:02.458Z,52.47
2022-10-09T16:29:23.195Z,52.86
2022-10-09T16:33:19.854Z,53.35
2022-10-09T16:36:40.504Z,53.71
2022-10-09T16:40:18.143Z,54.00
2022-10-09T16:43:57.877Z,54.60
2022-10-09T16:47:34.226Z,54.99
2022-10-09T16:51:14.210Z,55.23
2022-10-09T16:54:51.399Z,55.48
2022-10-09T16:58:26.855Z,55.99
2022-10-09T17:02:04.270Z,56.43
2022-10-09T17:05:41.998Z,56.95
2022-10-09T17:09:19.977Z,57.66
2022-10-09T17:13:18.840Z,57.58
2022-10-09T17:16:58.309Z,58.05
2022-10-09T17:20:18.818Z,58.24
2022-10-09T17:24:00.801Z,58.77
2022-10-09T17:27:34.173Z,60.15
2022-10-09T17:31:14.593Z,61.81
2022-10-09T17:34:51.246Z,62.13
2022-10-09T17:38:27.237Z,62.39
2022-10-09T17:42:07.048Z,63.27
2022-10-09T17:45:49.886Z,63.38
2022-10-09T17:49:20.299Z,63.14
2022-10-09T17:52:57.898Z,62.51
2022-10-09T17:56:35.740Z,62.92
2022-10-09T18:00:16.593Z,63.85
2022-10-09T18:03:52.258Z,64.13
2022-10-09T18:07:29.625Z,64.60
2022-10-09T18:11:10.262Z,64.98
2022-10-09T18:14:44.054Z,65.88
2022-10-09T18:18:22.231Z,64.94
2022-10-09T18:21:59.378Z,64.43
2022-10-09T18:25:43.293Z,63.95
2022-10-09T18:29:17.238Z,64.34
2022-10-09T18:32:52.702Z,64.89
2022-10-09T18:36:34.904Z,65.32
2022-10-09T18:40:08.493Z,65.63
2022-10-09T18:43:45.598Z,65.41
2022-10-09T18:47:26.346Z,65.69
2022-10-09T18:51:06.981Z,65.48
2022-10-09T18:54:40.014Z,65.41
2022-10-09T18:58:16.146Z,65.28
2022-10-09T19:01:53.750Z,65.19
2022-10-09T19:05:33.620Z,65.03
2022-10-09T19:09:09.279Z,65.43
2022-10-09T19:12:46.761Z,66.26
2022-10-09T19:16:24.694Z,67.22
2022-10-09T19:20:02.146Z,67.82
2022-10-09T19:23:40.196Z,68.59
2022-10-09T19:27:17.552Z,68.58
2022-10-09T19:31:00.062Z,68.50
2022-10-09T19:34:32.887Z,68.46
2022-10-09T19:38:10.498Z,68.15
2022-10-09T19:41:51.104Z,68.06
2022-10-09T19:45:48.431Z,68.27
2022-10-09T19:49:09.610Z,68.69
2022-10-09T19:53:09.021Z,69.25
2022-10-09T19:56:33.321Z,69.72
2022-10-09T20:00:09.070Z,69.61
2022-10-09T20:03:49.230Z,69.68
2022-10-09T20:07:23.502Z,69.74
2022-10-09T20:11:03.690Z,70.23
2022-10-09T20:14:38.891Z,70.47
2022-10-09T20:18:16.415Z,70.42
2022-10-09T20:21:58.123Z,70.61
2022-10-09T20:25:31.808Z,70.77
2022-10-09T20:29:09.486Z,70.53
2022-10-09T20:33:05.924Z,70.47
2022-10-09T20:36:39.250Z,70.46
2022-10-09T20:40:04.920Z,70.28
2022-10-09T20:44:02.487Z,70.63
2022-10-09T20:47:23.185Z,71.10
2022-10-09T20:51:20.777Z,72.31
2022-10-09T20:55:00.688Z,72.96
2022-10-09T20:58:21.453Z,72.72
2022-10-09T21:01:58.956Z,72.92
2022-10-09T21:05:45.142Z,72.60
2022-10-09T21:09:14.357Z,72.60
2022-10-09T21:12:52.224Z,73.03
2022-10-09T21:16:30.080Z,73.53
2022-10-09T21:20:12.693Z,74.13
2022-10-09T21:24:05.151Z,74.32
2022-10-09T21:27:44.673Z,74.47
2022-10-09T21:31:19.680Z,74.58
2022-10-09T21:34:42.694Z,74.54
2022-10-09T21:38:23.816Z,75.06
2022-10-09T21:41:58.356Z,75.27
2022-10-09T21:45:37.110Z,75.29
2022-10-09T21:49:23.440Z,75.10
2022-10-09T21:53:10.327Z,75.31
2022-10-09T21:56:31.157Z,75.22
2022-10-09T22:00:09.164Z,75.51
2022-10-09T22:03:46.459Z,75.85
2022-10-09T22:07:26.402Z,76.34
2022-10-09T22:11:04.567Z,76.67
2022-10-09T22:14:39.225Z,76.42
2022-10-09T22:18:16.994Z,76.61
2022-10-09T22:22:13.389Z,77.55
2022-10-09T22:25:34.352Z,77.92
2022-10-09T22:29:30.675Z,77.74
2022-10-09T22:32:55.080Z,77.71
2022-10-09T22:36:31.948Z,77.85
2022-10-09T22:40:07.116Z,78.25
2022-10-09T22:44:05.818Z,78.87
2022-10-09T22:47:26.308Z,78.49
2022-10-09T22:51:10.409Z,78.26
2022-10-09T22:54:41.783Z,77.94
2022-10-09T22:58:19.481Z,78.33
2022-10-09T23:01:58.369Z,78.46
2022-10-09T23:05:53.480Z,79.08
2022-10-09T23:09:15.617Z,79.17
2022-10-09T23:12:51.875Z,79.09
2022-10-09T23:16:31.288Z,79.01
2022-10-09T23:20:07.250Z,78.85
2022-10-09T23:23:48.829Z,79.27
2022-10-09T23:27:41.014Z,80.05
2022-10-09T23:31:10.118Z,80.28
2022-10-09T23:34:38.996Z,81.18
2022-10-09T23:38:16.577Z,80.66
2022-10-09T23:41:54.212Z,80.32
2022-10-09T23:45:51.425Z,79.99
2022-10-09T23:49:12.017Z,79.89
2022-10-09T23:52:50.058Z,80.48
2022-10-09T23:56:33.172Z,81.02
